Time;durP1;ratioP1;P1;durP2;ratioP2;P2;SDS_P1;SDS_P2;PMS_P1;PMS_P2;Temp;Humidity;BMP_temperature;BMP_pressure;BME280_temperature;BME280_humidity;BME280_pressure;Samples;Min_cycle;Max_cycle;Signal;HPM_P1;HPM_P2
2022/01/28 00:08:21;;;;;;;8.60;1.77;;;4.20;99.90;;;;;;2583844;54;20027;31
2022/01/28 01:04:44;;;;;;;7.90;1.58;;;3.50;99.90;;;;;;2584445;54;20026;31
2022/01/28 01:20:09;;;;;;;6.60;1.27;;;3.30;99.90;;;;;;2584491;54;20200;31
2022/01/28 01:29:28;;;;;;;8.73;1.10;;;3.20;99.90;;;;;;2584498;54;21024;31
2022/01/28 01:35:22;;;;;;;7.40;0.85;;;3.20;99.90;;;;;;2585209;54;20034;31
2022/01/28 01:43:57;;;;;;;9.10;1.40;;;3.30;99.90;;;;;;2584615;54;20977;31
2022/01/28 01:46:46;;;;;;;8.18;1.58;;;3.40;99.90;;;;;;2598177;46;20026;31
2022/01/28 02:56:24;;;;;;;7.40;0.90;;;3.60;99.90;;;;;;2584720;54;19934;31
2022/01/28 02:59:05;;;;;;;10.93;1.20;;;3.60;99.90;;;;;;2600772;46;20988;31
2022/01/28 03:35:04;;;;;;;9.45;2.13;;;3.20;99.90;;;;;;2583937;54;20019;31
2022/01/28 03:52:48;;;;;;;6.97;1.60;;;3.30;99.90;;;;;;2584410;54;20953;31
2022/01/28 04:15:08;;;;;;;11.50;1.70;;;3.40;99.90;;;;;;2585124;54;20957;31
2022/01/28 04:20:51;;;;;;;10.05;1.50;;;3.40;99.90;;;;;;2585246;54;20834;31
2022/01/28 04:28:53;;;;;;;10.95;1.85;;;3.50;99.90;;;;;;2584883;54;20191;31
2022/01/28 04:31:41;;;;;;;9.70;0.98;;;3.50;99.90;;;;;;2584730;54;19942;31
2022/01/28 04:37:28;;;;;;;11.02;1.73;;;3.50;99.90;;;;;;2584884;54;20805;31
2022/01/28 04:53:53;;;;;;;9.90;2.00;;;3.40;99.90;;;;;;2585188;54;20867;31
2022/01/28 05:16:16;;;;;;;12.50;1.90;;;3.50;99.90;;;;;;2585993;46;20019;31
2022/01/28 05:28:23;;;;;;;14.80;3.45;;;3.40;99.90;;;;;;2585105;54;20033;31
2022/01/28 05:43:25;;;;;;;18.60;3.97;;;3.30;99.90;;;;;;2592125;46;21947;31
2022/01/28 05:46:00;;;;;;;16.73;3.83;;;3.40;99.90;;;;;;2585555;54;20253;31
2022/01/28 05:48:35;;;;;;;21.75;4.30;;;3.40;99.90;;;;;;2585256;54;21023;31
2022/01/28 05:51:11;;;;;;;18.45;3.05;;;3.40;99.90;;;;;;2585402;54;19961;31
2022/01/28 06:00:06;;;;;;;8.20;2.15;;;3.50;99.90;;;;;;2585506;54;21844;31
2022/01/28 06:02:55;;;;;;;25.02;2.95;;;3.50;99.90;;;;;;2585149;54;20108;31
2022/01/28 06:08:37;;;;;;;12.25;2.55;;;3.60;99.90;;;;;;2585457;54;20873;31
2022/01/28 06:11:37;;;;;;;16.43;2.67;;;3.50;99.90;;;;;;2585234;54;20947;31
2022/01/28 06:15:00;;;;;;;11.30;2.23;;;3.60;99.90;;;;;;2585391;54;21143;31
2022/01/28 06:18:37;;;;;;;11.27;2.42;;;3.50;99.90;;;;;;2584955;54;20989;31
2022/01/28 06:21:51;;;;;;;;;;;;;;;;;;;;;
2022/01/28 06:24:59;;;;;;;13.40;2.22;;;3.60;99.90;;;;;;2587020;46;20022;31
2022/01/28 06:31:06;;;;;;;9.85;1.98;;;3.50;99.90;;;;;;2603749;46;21036;31
2022/01/28 06:43:14;;;;;;;14.60;2.80;;;3.60;99.90;;;;;;2584740;54;20019;31
2022/01/28 06:52:10;;;;;;;;;;;3.70;99.90;;;;;;2585596;54;20029;31
2022/01/28 06:55:23;;;;;;;8.25;1.73;;;3.70;99.90;;;;;;2602922;46;19961;31
2022/01/28 06:57:56;;;;;;;10.40;2.10;;;3.70;99.90;;;;;;2603665;46;22480;31
2022/01/28 07:00:41;;;;;;;10.50;2.15;;;3.70;99.90;;;;;;2698723;39;21470;31
2022/01/28 07:06:25;;;;;;;9.83;1.83;;;3.80;99.90;;;;;;2584963;54;20243;31
2022/01/28 07:12:07;;;;;;;9.13;1.85;;;3.80;99.90;;;;;;2585332;54;20026;31
2022/01/28 07:14:53;;;;;;;7.47;1.80;;;3.80;99.90;;;;;;2603770;46;20019;31
2022/01/28 07:20:35;;;;;;;11.15;1.77;;;3.80;99.90;;;;;;2584926;54;21202;31
2022/01/28 07:23:16;;;;;;;10.30;2.13;;;3.80;99.90;;;;;;2584695;54;21000;31
2022/01/28 07:38:42;;;;;;;;;;;;;;;;;;;;;
2022/01/28 07:42:02;;;;;;;12.35;1.95;;;3.80;99.90;;;;;;2585984;54;19941;31
2022/01/28 07:44:52;;;;;;;14.90;2.70;;;3.80;99.90;;;;;;2585592;54;20950;31
2022/01/28 07:47:36;;;;;;;10.20;2.20;;;3.90;99.90;;;;;;2585847;54;20077;31
2022/01/28 07:50:13;;;;;;;18.60;3.00;;;3.80;99.90;;;;;;2604285;46;20935;31
2022/01/28 07:56:03;;;;;;;9.70;2.60;;;3.90;99.90;;;;;;2585435;54;20974;31
2022/01/28 07:59:42;;;;;;;10.52;1.58;;;3.90;99.90;;;;;;2585600;54;20030;31
2022/01/28 08:02:24;;;;;;;17.73;2.65;;;3.90;99.90;;;;;;2585761;54;20132;31
2022/01/28 08:05:11;;;;;;;10.75;2.10;;;3.90;99.90;;;;;;2585275;54;20022;31
2022/01/28 08:11:10;;;;;;;15.23;2.60;;;3.90;99.90;;;;;;2585231;54;20766;31
2022/01/28 08:13:49;;;;;;;10.65;2.30;;;3.90;99.90;;;;;;2585730;54;20029;31
2022/01/28 08:16:23;;;;;;;12.95;2.00;;;3.90;99.90;;;;;;2585426;54;20924;31
2022/01/28 08:24:56;;;;;;;15.30;3.67;;;3.80;99.90;;;;;;2585378;54;21081;31
2022/01/28 08:39:22;;;;;;;17.00;3.00;;;3.70;99.90;;;;;;2585547;54;19988;31
2022/01/28 08:45:12;;;;;;;12.82;2.15;;;3.70;99.90;;;;;;2584661;54;19985;31
2022/01/28 08:48:40;;;;;;;13.30;2.50;;;3.80;99.90;;;;;;2585348;54;20034;31
2022/01/28 08:51:19;;;;;;;8.40;1.90;;;3.70;99.90;;;;;;2585351;54;20723;31
2022/01/28 08:53:57;;;;;;;12.90;1.85;;;3.70;99.90;;;;;;2585637;54;20030;31
2022/01/28 08:56:46;;;;;;;13.65;2.15;;;3.70;99.90;;;;;;2585759;54;20026;31
2022/01/28 09:00:26;;;;;;;9.10;1.80;;;3.80;99.90;;;;;;2585603;54;20936;31
2022/01/28 09:07:03;;;;;;;10.65;1.70;;;3.80;99.90;;;;;;2683042;39;20535;31
2022/01/28 09:10:18;;;;;;;6.83;1.30;;;3.80;99.90;;;;;;2585688;54;21902;31
2022/01/28 09:15:48;;;;;;;9.00;1.70;;;3.80;99.90;;;;;;2585384;46;20080;31
2022/01/28 09:18:29;;;;;;;14.03;2.97;;;3.80;99.90;;;;;;2585719;54;20962;31
2022/01/28 09:21:07;;;;;;;11.55;1.90;;;3.90;99.90;;;;;;2604060;46;20037;31
2022/01/28 09:23:48;;;;;;;14.45;2.90;;;3.90;99.90;;;;;;2585785;54;20899;31
2022/01/28 09:26:45;;;;;;;13.60;1.88;;;3.90;99.90;;;;;;2604260;46;20034;31
2022/01/28 09:29:36;;;;;;;12.40;2.75;;;4.00;99.90;;;;;;2603812;46;20094;31
2022/01/28 09:42:00;;;;;;;13.80;2.72;;;4.00;99.90;;;;;;2585270;54;20937;31
2022/01/28 09:55:28;;;;;;;16.40;2.55;;;4.10;99.90;;;;;;2585079;54;20830;31
2022/01/28 09:58:31;;;;;;;10.10;2.07;;;4.20;99.90;;;;;;2585259;54;20884;31
2022/01/28 10:01:11;;;;;;;14.05;2.60;;;4.20;99.90;;;;;;2585473;54;20052;31
2022/01/28 10:07:16;;;;;;;15.00;2.38;;;4.20;99.90;;;;;;2585084;54;20571;31
2022/01/28 10:13:21;;;;;;;14.97;2.27;;;4.20;99.90;;;;;;2585279;54;20030;31
2022/01/28 10:16:16;;;;;;;16.50;2.33;;;4.20;99.90;;;;;;2585429;54;20254;31
2022/01/28 10:19:03;;;;;;;10.90;2.15;;;4.20;99.90;;;;;;2603221;46;20029;31
2022/01/28 10:21:43;;;;;;;15.18;2.08;;;4.10;99.90;;;;;;2585434;54;21328;31
2022/01/28 10:24:32;;;;;;;7.07;2.15;;;4.10;99.90;;;;;;2585481;54;20026;31
2022/01/28 10:27:31;;;;;;;;;;;;;;;;;;;;;
2022/01/28 10:30:16;;;;;;;12.97;3.17;;;4.00;99.90;;;;;;2584995;54;20825;31
2022/01/28 10:33:08;;;;;;;18.08;3.05;;;4.00;99.90;;;;;;2585283;54;20782;31
2022/01/28 10:38:34;;;;;;;14.88;1.88;;;4.00;99.90;;;;;;2584831;54;20037;31
2022/01/28 10:41:30;;;;;;;14.15;2.35;;;4.00;99.90;;;;;;2584830;54;20105;31
2022/01/28 10:44:03;;;;;;;13.35;2.25;;;4.10;99.90;;;;;;2603878;46;21969;31
2022/01/28 10:46:46;;;;;;;13.27;2.60;;;4.10;99.90;;;;;;2584918;54;20022;31
2022/01/28 10:52:37;;;;;;;17.67;2.95;;;4.20;99.90;;;;;;2585524;54;20049;31
2022/01/28 10:55:19;;;;;;;15.50;2.10;;;4.20;99.90;;;;;;2585049;54;21017;31
2022/01/28 10:58:09;;;;;;;16.30;3.07;;;4.20;99.90;;;;;;2603931;46;20971;31
2022/01/28 11:00:46;;;;;;;17.85;3.00;;;4.30;99.90;;;;;;2701609;39;22457;31
2022/01/28 11:03:26;;;;;;;17.25;3.15;;;4.30;99.90;;;;;;2585323;54;22002;31
2022/01/28 11:09:14;;;;;;;16.05;3.13;;;4.40;99.90;;;;;;2585213;54;20965;31
2022/01/28 11:11:51;;;;;;;18.10;3.45;;;4.40;99.90;;;;;;2683189;39;22431;31
2022/01/28 11:14:39;;;;;;;12.43;2.72;;;4.40;99.90;;;;;;2585078;54;20032;31
2022/01/28 11:17:17;;;;;;;20.30;3.42;;;4.50;99.90;;;;;;2585132;54;20031;31
2022/01/28 11:20:04;;;;;;;13.15;2.90;;;4.60;99.90;;;;;;2585190;54;20026;31
2022/01/28 11:22:54;;;;;;;21.10;4.00;;;4.60;99.90;;;;;;2696759;39;21124;31
2022/01/28 11:25:42;;;;;;;15.50;3.90;;;4.60;99.90;;;;;;2603091;47;21027;31
2022/01/28 11:28:17;;;;;;;12.75;2.45;;;4.60;99.90;;;;;;2603649;47;20919;31
2022/01/28 11:31:00;;;;;;;15.70;4.05;;;4.70;99.90;;;;;;2583983;54;21046;31
2022/01/28 11:33:50;;;;;;;15.82;2.53;;;4.70;99.90;;;;;;2603607;47;21111;31
2022/01/28 11:39:32;;;;;;;16.30;2.30;;;4.80;99.90;;;;;;2603415;47;21024;31
2022/01/28 11:42:34;;;;;;;17.05;3.25;;;4.80;99.90;;;;;;2584761;54;20964;31
2022/01/28 11:45:14;;;;;;;13.70;2.00;;;4.80;99.90;;;;;;2602988;47;20081;31
2022/01/28 11:48:06;;;;;;;13.27;2.28;;;4.80;99.90;;;;;;2603065;47;20033;31
2022/01/28 11:51:00;;;;;;;14.85;2.85;;;4.90;99.90;;;;;;2584954;54;20037;31
2022/01/28 11:53:34;;;;;;;10.15;1.92;;;4.90;99.90;;;;;;2584911;54;20033;31
2022/01/28 11:56:10;;;;;;;;;;;4.90;99.90;;;;;;2584876;54;20905;31
2022/01/28 11:58:56;;;;;;;17.95;3.38;;;4.90;99.90;;;;;;2585052;54;19935;31
2022/01/28 12:02:01;;;;;;;;;;;4.90;99.90;;;;;;2585202;54;20185;31
2022/01/28 12:04:45;;;;;;;17.00;2.80;;;4.90;99.90;;;;;;2585001;54;20814;31
2022/01/28 12:07:33;;;;;;;17.00;2.20;;;4.90;99.90;;;;;;2585125;54;20031;31
2022/01/28 12:10:15;;;;;;;15.55;3.50;;;4.90;99.90;;;;;;2584685;54;20073;31
2022/01/28 12:13:01;;;;;;;18.42;2.60;;;4.90;99.90;;;;;;2584606;54;20996;31
2022/01/28 12:16:05;;;;;;;9.98;1.80;;;4.90;99.90;;;;;;2584794;54;20061;31
2022/01/28 12:18:53;;;;;;;10.80;2.60;;;4.90;99.90;;;;;;2604033;47;21009;31
2022/01/28 12:21:35;;;;;;;11.88;2.17;;;4.90;99.90;;;;;;2585690;54;20022;31
2022/01/28 12:24:34;;;;;;;10.55;2.13;;;4.80;99.90;;;;;;2585645;54;20097;31
2022/01/28 12:27:10;;;;;;;6.78;1.52;;;4.80;99.90;;;;;;2585275;54;20037;31
2022/01/28 12:29:46;;;;;;;11.23;1.87;;;4.80;99.90;;;;;;2604532;46;20960;31
2022/01/28 12:32:24;;;;;;;9.00;2.00;;;4.80;99.90;;;;;;2604053;46;20256;31
2022/01/28 12:35:03;;;;;;;10.57;3.00;;;4.90;99.90;;;;;;2585565;54;20246;31
2022/01/28 12:38:00;;;;;;;8.82;1.75;;;4.90;99.90;;;;;;2585753;54;20238;31
2022/01/28 12:40:45;;;;;;;12.27;2.55;;;4.80;99.90;;;;;;2585932;54;20980;31
2022/01/28 12:43:20;;;;;;;12.13;1.92;;;4.90;99.90;;;;;;2585847;54;22456;31
2022/01/28 12:46:05;;;;;;;13.73;2.17;;;4.80;99.90;;;;;;2754016;31;21713;31
2022/01/28 12:49:08;;;;;;;11.15;2.00;;;4.80;99.90;;;;;;2585543;54;20030;31
2022/01/28 12:52:04;;;;;;;9.85;1.98;;;4.90;99.90;;;;;;2585304;54;20760;31
2022/01/28 12:54:37;;;;;;;10.40;2.30;;;4.90;99.90;;;;;;2585642;54;20049;31
2022/01/28 12:57:20;;;;;;;11.80;2.00;;;4.90;99.90;;;;;;2585795;54;20038;31
2022/01/28 12:59:56;;;;;;;7.30;2.53;;;4.90;99.90;;;;;;2585285;54;20031;31
2022/01/28 13:02:29;;;;;;;10.90;2.15;;;4.90;99.90;;;;;;2585355;54;20951;31
2022/01/28 13:05:16;;;;;;;14.73;2.42;;;4.90;99.90;;;;;;2585438;54;20026;31
2022/01/28 13:16:36;;;;;;;12.37;2.00;;;4.80;99.90;;;;;;2585711;54;20971;31
2022/01/28 13:19:22;;;;;;;15.10;2.60;;;4.80;99.90;;;;;;2585555;54;20050;31
2022/01/28 13:21:54;;;;;;;9.20;2.20;;;4.80;99.90;;;;;;2585508;54;21000;31
2022/01/28 13:24:29;;;;;;;13.50;2.50;;;4.70;99.90;;;;;;2585478;54;20057;31
2022/01/28 13:27:06;;;;;;;9.10;3.00;;;4.70;99.90;;;;;;2585277;54;20138;31
2022/01/28 13:32:14;;;;;;;12.50;2.75;;;4.70;99.90;;;;;;2585299;54;20049;31
2022/01/28 13:34:55;;;;;;;11.15;2.40;;;4.70;99.90;;;;;;2585270;54;20030;31
2022/01/28 13:37:39;;;;;;;11.30;2.20;;;4.60;99.90;;;;;;2585181;54;20060;31
2022/01/28 13:40:34;;;;;;;14.35;2.78;;;4.60;99.90;;;;;;2585707;54;20945;31
2022/01/28 13:43:09;;;;;;;15.25;2.65;;;4.50;99.90;;;;;;2604111;46;21149;31
2022/01/28 13:48:51;;;;;;;11.25;2.70;;;4.60;99.90;;;;;;2585330;54;20033;31
2022/01/28 13:51:46;;;;;;;8.70;1.60;;;4.60;99.90;;;;;;2592686;46;20072;31
2022/01/28 14:00:38;;;;;;;11.10;2.25;;;4.80;99.90;;;;;;2585238;54;20082;31
2022/01/28 14:03:18;;;;;;;11.73;2.67;;;4.70;99.90;;;;;;2585251;54;20263;31
2022/01/28 14:16:21;;;;;;;9.57;2.13;;;4.50;99.90;;;;;;2584638;54;20133;31
2022/01/28 14:32:34;;;;;;;17.00;4.90;;;4.40;99.90;;;;;;2585202;54;20045;31
2022/01/28 14:35:10;;;;;;;12.10;2.23;;;4.30;99.90;;;;;;2585068;54;21018;31
2022/01/28 14:44:43;;;;;;;15.00;2.50;;;4.40;99.90;;;;;;2584967;54;21165;31
2022/01/28 14:56:21;;;;;;;12.73;3.17;;;4.30;99.90;;;;;;2585183;54;20033;31
2022/01/28 14:59:06;;;;;;;18.90;2.67;;;4.40;99.90;;;;;;2584295;54;20966;31
2022/01/28 15:01:42;;;;;;;15.57;2.80;;;4.60;99.90;;;;;;2603098;46;21237;31
2022/01/28 15:04:27;;;;;;;16.48;2.53;;;4.60;99.90;;;;;;2584730;54;21895;31
2022/01/28 15:07:02;;;;;;;14.95;2.60;;;4.60;99.90;;;;;;2585132;54;20030;31
2022/01/28 15:09:54;;;;;;;18.17;2.55;;;4.50;99.90;;;;;;2585262;54;20054;31
2022/01/28 15:12:36;;;;;;;12.45;3.15;;;4.40;99.90;;;;;;2585066;54;20026;31
2022/01/28 15:15:22;;;;;;;11.10;2.30;;;4.40;99.90;;;;;;2683298;39;21082;31
2022/01/28 15:18:01;;;;;;;8.65;2.83;;;4.40;99.90;;;;;;2584237;54;20938;31
2022/01/28 15:20:40;;;;;;;15.55;2.92;;;4.40;99.90;;;;;;2584095;54;20082;31
2022/01/28 15:23:15;;;;;;;17.80;3.40;;;4.40;99.90;;;;;;2584863;54;20940;31
2022/01/28 15:26:08;;;;;;;19.88;3.30;;;4.30;99.90;;;;;;2585066;54;20042;31
2022/01/28 15:29:01;;;;;;;10.60;2.38;;;4.30;99.90;;;;;;2603426;47;20069;31
2022/01/28 15:34:47;;;;;;;13.05;2.20;;;4.30;99.90;;;;;;2584845;54;20038;31
2022/01/28 15:37:20;;;;;;;12.93;2.33;;;4.30;99.90;;;;;;2584973;54;20776;31
2022/01/28 15:39:52;;;;;;;15.20;3.00;;;4.20;99.90;;;;;;2585168;54;22427;31
2022/01/28 15:42:35;;;;;;;14.60;3.50;;;4.20;99.90;;;;;;2584220;54;21008;31
2022/01/28 15:45:13;;;;;;;10.07;2.20;;;4.20;99.90;;;;;;2584948;54;20998;31
2022/01/28 15:47:51;;;;;;;12.98;2.45;;;4.10;99.90;;;;;;2701099;39;21065;31
2022/01/28 15:50:28;;;;;;;13.20;2.50;;;4.00;99.90;;;;;;2583983;54;20779;31
2022/01/28 15:53:05;;;;;;;13.85;2.50;;;4.00;99.90;;;;;;2604163;47;20107;31
2022/01/28 15:58:20;;;;;;;12.57;2.53;;;4.00;99.90;;;;;;2604682;46;20034;31
2022/01/28 16:00:59;;;;;;;20.80;3.00;;;4.00;99.90;;;;;;2604384;46;20253;31
2022/01/28 16:03:39;;;;;;;12.40;2.20;;;4.10;99.90;;;;;;2585925;54;22437;31
2022/01/28 16:06:22;;;;;;;11.13;2.60;;;4.10;99.90;;;;;;2604236;46;21903;31
2022/01/28 16:09:03;;;;;;;13.98;2.55;;;4.10;99.90;;;;;;2585777;54;20030;31
2022/01/28 16:11:49;;;;;;;11.98;2.50;;;4.00;99.90;;;;;;2584700;54;20022;31
2022/01/28 16:14:32;;;;;;;8.53;2.20;;;4.00;99.90;;;;;;2585408;54;21021;31
2022/01/28 16:19:42;;;;;;;10.00;2.40;;;4.00;99.90;;;;;;2604084;46;20875;31
2022/01/28 16:22:20;;;;;;;11.83;2.50;;;4.00;99.90;;;;;;2598780;46;20902;31
2022/01/28 16:24:55;;;;;;;;;;;4.10;99.90;;;;;;2585963;54;20109;31
2022/01/28 16:27:30;;;;;;;10.70;2.70;;;4.00;99.90;;;;;;2585589;54;19989;31
2022/01/28 16:30:13;;;;;;;12.90;2.10;;;4.00;99.90;;;;;;2585791;54;20030;31
2022/01/28 16:32:50;;;;;;;9.95;2.15;;;4.00;99.90;;;;;;2585541;54;20176;31
2022/01/28 16:35:29;;;;;;;10.80;2.40;;;3.90;99.90;;;;;;2585815;54;20108;31
2022/01/28 16:38:04;;;;;;;11.20;2.50;;;3.90;99.90;;;;;;2585668;54;20964;31
2022/01/28 16:40:40;;;;;;;9.30;2.28;;;3.90;99.90;;;;;;2585714;54;20054;31
2022/01/28 16:43:18;;;;;;;12.35;2.35;;;3.80;99.90;;;;;;2604156;46;22544;31
2022/01/28 16:45:58;;;;;;;12.23;2.47;;;3.80;99.90;;;;;;2604061;46;20085;31
2022/01/28 16:48:46;;;;;;;12.60;3.20;;;3.70;99.90;;;;;;2584711;54;20146;31
2022/01/28 16:51:26;;;;;;;8.32;2.30;;;3.70;99.90;;;;;;2602957;46;21015;31
2022/01/28 16:54:04;;;;;;;9.07;2.10;;;3.60;99.90;;;;;;2584561;54;21061;31
2022/01/28 16:57:22;;;;;;;9.35;1.85;;;3.60;99.90;;;;;;2585631;54;20844;31
2022/01/28 17:09:24;;;;;;;;;;;;;;;;;;;;;
2022/01/28 17:12:29;;;;;;;6.70;1.30;;;3.40;99.90;;;;;;2585700;54;20076;31
2022/01/28 17:15:07;;;;;;;3.55;1.10;;;3.30;99.90;;;;;;2585531;54;20976;31
2022/01/28 17:17:45;;;;;;;6.07;1.80;;;3.30;99.90;;;;;;2585375;54;20730;31
2022/01/28 17:20:32;;;;;;;8.17;1.37;;;3.20;99.90;;;;;;2683356;39;20559;31
2022/01/28 17:23:08;;;;;;;5.50;1.05;;;3.20;99.90;;;;;;2585520;54;20940;31
2022/01/28 17:25:50;;;;;;;7.10;1.40;;;3.10;99.90;;;;;;2585151;54;20857;31
2022/01/28 17:28:30;;;;;;;5.80;1.27;;;3.10;99.90;;;;;;2585117;54;20986;31
2022/01/28 17:31:06;;;;;;;6.45;1.40;;;3.00;99.90;;;;;;2683670;39;22533;31
2022/01/28 17:33:40;;;;;;;4.50;2.28;;;3.00;99.90;;;;;;2603537;46;20026;31
2022/01/28 17:36:18;;;;;;;3.50;1.00;;;2.90;99.90;;;;;;2604338;46;21142;31
2022/01/28 17:38:57;;;;;;;4.43;1.80;;;3.00;99.90;;;;;;2585395;54;20031;31
2022/01/28 17:41:33;;;;;;;5.38;1.40;;;2.90;99.90;;;;;;2592605;46;20789;31
2022/01/28 17:44:28;;;;;;;5.00;1.50;;;2.80;99.90;;;;;;2585144;54;20032;31
2022/01/28 17:47:07;;;;;;;5.47;1.60;;;2.80;99.90;;;;;;2683215;39;21125;31
2022/01/28 17:49:43;;;;;;;10.15;2.42;;;2.80;99.90;;;;;;2585484;54;20906;31
2022/01/28 17:52:26;;;;;;;5.22;1.80;;;2.80;99.90;;;;;;2585034;54;20983;31
2022/01/28 17:55:08;;;;;;;5.38;2.20;;;2.70;99.90;;;;;;2585591;54;20913;31
2022/01/28 17:57:45;;;;;;;7.10;2.30;;;2.70;99.90;;;;;;2585477;54;20996;31
2022/01/28 18:00:22;;;;;;;5.45;1.90;;;2.70;99.90;;;;;;2603866;46;20077;31
2022/01/28 18:15:33;;;;;;;7.90;2.23;;;2.50;99.90;;;;;;2585097;54;21069;31
2022/01/28 18:18:26;;;;;;;6.55;2.03;;;2.50;99.90;;;;;;2603430;46;20230;31
2022/01/28 18:24:43;;;;;;;6.60;1.80;;;2.40;99.90;;;;;;2584663;54;20870;31
2022/01/28 18:27:36;;;;;;;4.50;1.80;;;2.40;99.90;;;;;;2584944;54;21077;31
2022/01/28 18:30:17;;;;;;;7.50;1.77;;;2.40;99.90;;;;;;2584794;54;20102;31
2022/01/28 18:45:18;;;;;;;4.45;1.67;;;2.30;99.90;;;;;;2585103;54;20132;31
2022/01/28 18:47:57;;;;;;;4.25;1.50;;;2.20;99.90;;;;;;2585373;54;20023;31
2022/01/28 18:50:37;;;;;;;4.93;1.52;;;2.20;99.90;;;;;;2683377;39;21149;31
2022/01/28 18:53:26;;;;;;;5.38;2.03;;;2.20;99.90;;;;;;2585120;54;20132;31
2022/01/28 18:56:12;;;;;;;6.00;2.13;;;2.20;99.90;;;;;;2603576;46;20032;31
2022/01/28 18:58:47;;;;;;;3.67;2.20;;;2.20;99.90;;;;;;2585486;54;20052;31
2022/01/28 19:01:30;;;;;;;6.70;2.30;;;2.20;99.90;;;;;;2584312;54;20841;31
2022/01/28 19:04:26;;;;;;;3.13;1.47;;;2.10;99.90;;;;;;2585050;54;20046;31
2022/01/28 19:09:58;;;;;;;10.65;2.70;;;2.10;99.90;;;;;;2683132;39;22304;31
2022/01/28 19:12:42;;;;;;;4.68;1.80;;;2.10;99.90;;;;;;2584771;54;20049;31
2022/01/28 19:15:18;;;;;;;5.30;1.80;;;2.00;99.90;;;;;;2589324;46;20911;31
2022/01/28 19:17:58;;;;;;;1.98;0.75;;;2.00;99.90;;;;;;2584314;54;20081;31
2022/01/28 19:20:34;;;;;;;3.50;1.20;;;2.00;99.90;;;;;;2584814;54;20038;31
2022/01/28 19:23:10;;;;;;;4.75;1.40;;;2.00;99.90;;;;;;2598229;47;20093;31
2022/01/28 19:25:50;;;;;;;5.40;1.90;;;2.10;99.90;;;;;;2585318;54;20030;31
2022/01/28 19:28:26;;;;;;;5.80;2.40;;;2.10;99.90;;;;;;2585634;54;20930;31
2022/01/28 19:31:01;;;;;;;7.82;2.65;;;2.00;99.90;;;;;;2586046;54;20054;31
2022/01/28 19:33:41;;;;;;;7.75;2.72;;;2.00;99.90;;;;;;2585958;54;20069;31
2022/01/28 19:36:24;;;;;;;6.00;2.17;;;1.90;99.90;;;;;;2604729;46;21020;31
2022/01/28 19:38:58;;;;;;;8.38;2.38;;;1.90;99.90;;;;;;2591566;46;22270;31
2022/01/28 19:41:34;;;;;;;8.88;2.35;;;1.90;99.90;;;;;;2585846;54;20100;31
2022/01/28 19:44:10;;;;;;;5.55;1.85;;;1.80;99.90;;;;;;2604679;46;21107;31
2022/01/28 19:46:46;;;;;;;5.67;2.07;;;1.80;99.90;;;;;;2585862;54;20946;31
2022/01/28 19:49:25;;;;;;;5.45;2.50;;;1.70;99.90;;;;;;2604275;46;20856;31
2022/01/28 19:52:01;;;;;;;5.57;2.15;;;1.70;99.90;;;;;;2585244;54;20031;31
2022/01/28 19:54:36;;;;;;;6.97;2.00;;;1.70;99.90;;;;;;2585290;54;21888;31
2022/01/28 19:57:13;;;;;;;6.93;1.92;;;1.70;99.90;;;;;;2585974;54;20923;31
2022/01/28 20:00:03;;;;;;;5.40;1.60;;;1.70;99.90;;;;;;2584850;54;20132;31
2022/01/28 20:02:49;;;;;;;4.10;1.67;;;1.70;99.90;;;;;;2585941;54;20126;31
2022/01/28 20:05:27;;;;;;;6.43;1.80;;;1.70;99.90;;;;;;2603722;46;20026;31
2022/01/28 20:08:03;;;;;;;4.45;1.40;;;1.70;99.90;;;;;;2585958;54;21252;31
2022/01/28 20:10:39;;;;;;;5.55;1.40;;;1.70;99.90;;;;;;2603919;46;20038;31
2022/01/28 20:13:16;;;;;;;6.43;1.63;;;1.70;99.90;;;;;;2589872;46;20953;31
2022/01/28 20:15:56;;;;;;;5.55;1.85;;;1.70;99.90;;;;;;2585815;54;20828;31
2022/01/28 20:18:31;;;;;;;5.83;2.33;;;1.60;99.90;;;;;;2585855;54;21179;31
2022/01/28 20:21:10;;;;;;;7.90;2.75;;;1.60;99.90;;;;;;2603627;46;21007;31
2022/01/28 20:23:48;;;;;;;6.65;2.58;;;1.60;99.90;;;;;;2585710;54;20043;31
2022/01/28 20:26:22;;;;;;;8.60;3.05;;;1.60;99.90;;;;;;2585876;54;20117;31
2022/01/28 20:28:55;;;;;;;6.40;2.65;;;1.50;99.90;;;;;;2585701;54;20912;31
2022/01/28 20:31:32;;;;;;;7.73;2.70;;;1.50;99.90;;;;;;2603272;46;20842;31
2022/01/28 20:34:07;;;;;;;7.07;2.92;;;1.50;99.90;;;;;;2585234;54;21940;31
2022/01/28 20:36:46;;;;;;;8.82;2.17;;;1.40;99.90;;;;;;2584811;54;20049;31
2022/01/28 20:39:19;;;;;;;5.45;2.35;;;1.40;99.90;;;;;;2585490;54;20924;31
2022/01/28 20:41:54;;;;;;;9.07;3.10;;;1.40;99.90;;;;;;2584745;54;20089;31
2022/01/28 20:44:31;;;;;;;8.10;2.35;;;1.30;99.90;;;;;;2773605;31;22547;31
2022/01/28 20:47:08;;;;;;;7.77;2.73;;;1.30;99.90;;;;;;2585796;54;20765;31
2022/01/28 20:49:47;;;;;;;9.33;3.70;;;1.30;99.90;;;;;;2584917;54;21116;31
2022/01/28 20:52:25;;;;;;;6.65;2.70;;;1.20;99.90;;;;;;2584767;54;20085;31
2022/01/28 20:54:58;;;;;;;8.80;2.70;;;1.20;99.90;;;;;;2682259;39;21546;31
2022/01/28 20:57:33;;;;;;;9.93;3.00;;;1.20;99.90;;;;;;2584504;54;20925;31
2022/01/28 21:00:12;;;;;;;7.47;2.77;;;1.10;99.90;;;;;;2584523;54;20933;31
2022/01/28 21:02:49;;;;;;;7.85;2.33;;;1.10;99.90;;;;;;2584455;54;20646;31
2022/01/28 21:05:26;;;;;;;7.35;2.90;;;1.20;99.90;;;;;;2585525;54;21010;31
2022/01/28 21:08:07;;;;;;;9.25;2.60;;;1.00;99.90;;;;;;2598013;46;20037;31
2022/01/28 21:10:41;;;;;;;8.13;2.43;;;1.00;99.90;;;;;;2604118;46;20113;31
2022/01/28 21:13:18;;;;;;;4.65;2.30;;;1.00;99.90;;;;;;2585517;54;20057;31
2022/01/28 21:15:55;;;;;;;7.07;2.13;;;1.00;99.90;;;;;;2585495;54;20033;31
2022/01/28 21:18:32;;;;;;;8.13;2.38;;;0.90;99.90;;;;;;2754616;31;22600;31
2022/01/28 21:21:08;;;;;;;7.05;2.05;;;0.90;99.90;;;;;;2585588;54;20030;31
2022/01/28 21:23:40;;;;;;;7.10;1.55;;;0.90;99.90;;;;;;2586066;54;21917;31
2022/01/28 21:26:22;;;;;;;8.10;2.50;;;0.90;99.90;;;;;;2585615;54;21068;31
2022/01/28 21:29:03;;;;;;;6.60;2.97;;;0.80;99.90;;;;;;2603560;46;20057;31
2022/01/28 21:31:39;;;;;;;10.37;2.70;;;0.80;99.90;;;;;;2585395;54;21633;31
2022/01/28 21:34:16;;;;;;;9.68;2.88;;;0.80;99.90;;;;;;2603706;46;20261;31
2022/01/28 21:36:53;;;;;;;7.20;3.17;;;0.90;99.90;;;;;;2584786;54;20022;31
2022/01/28 21:39:31;;;;;;;10.43;3.50;;;0.70;99.90;;;;;;2584685;54;19953;31
2022/01/28 21:42:23;;;;;;;6.53;2.50;;;0.70;99.90;;;;;;2585643;54;20037;31
2022/01/28 21:44:56;;;;;;;10.30;2.70;;;0.70;99.90;;;;;;2683787;39;21031;31
2022/01/28 21:47:33;;;;;;;9.75;3.40;;;0.70;99.90;;;;;;2604189;46;21134;31
2022/01/28 21:50:11;;;;;;;12.43;3.63;;;0.60;99.90;;;;;;2584498;54;20840;31
2022/01/28 22:02:31;;;;;;;6.63;2.23;;;0.70;99.90;;;;;;2584969;54;21596;31
2022/01/28 22:11:38;;;;;;;6.20;2.50;;;0.80;99.90;;;;;;2583311;54;20073;31
2022/01/28 22:14:19;;;;;;;8.48;2.10;;;0.70;99.90;;;;;;2584586;54;20913;31
2022/01/28 22:16:54;;;;;;;6.80;2.70;;;0.70;99.90;;;;;;2584599;54;20952;31
2022/01/28 22:19:31;;;;;;;9.20;2.20;;;0.60;99.90;;;;;;2584656;54;20033;31
2022/01/28 22:22:08;;;;;;;5.57;2.20;;;0.60;99.90;;;;;;2584554;54;20080;31
2022/01/28 22:24:46;;;;;;;10.25;2.85;;;0.60;99.90;;;;;;2603776;46;20029;31
2022/01/28 22:27:32;;;;;;;7.45;2.15;;;0.50;99.90;;;;;;2585347;54;20037;31
2022/01/28 22:30:06;;;;;;;8.00;2.53;;;0.50;99.90;;;;;;2683486;39;21042;31
2022/01/28 22:32:41;;;;;;;5.00;2.33;;;0.50;99.90;;;;;;2585274;54;20813;31
2022/01/28 22:35:20;;;;;;;6.75;3.10;;;0.50;99.90;;;;;;2584609;54;21794;31
2022/01/28 22:37:59;;;;;;;7.93;2.58;;;0.60;99.90;;;;;;2585245;54;20919;31
2022/01/28 22:40:35;;;;;;;8.43;2.67;;;0.60;99.90;;;;;;2584334;54;20809;31
2022/01/28 22:43:18;;;;;;;5.63;2.30;;;0.50;99.90;;;;;;2585295;54;21017;31
2022/01/28 22:45:53;;;;;;;8.93;2.88;;;0.60;99.90;;;;;;2584664;54;20285;31
2022/01/28 22:48:31;;;;;;;5.80;2.90;;;0.60;99.90;;;;;;2585315;54;20887;31
2022/01/28 22:51:07;;;;;;;6.45;3.17;;;0.60;99.90;;;;;;2585421;54;20929;31
2022/01/28 22:53:41;;;;;;;11.83;5.33;;;0.60;99.90;;;;;;2682687;39;20524;31
2022/01/28 22:56:14;;;;;;;10.68;4.50;;;0.60;99.90;;;;;;2603878;46;20717;31
2022/01/28 22:58:52;;;;;;;11.23;4.68;;;0.50;99.90;;;;;;2603685;46;20088;31
2022/01/28 23:01:29;;;;;;;10.30;4.53;;;0.70;99.90;;;;;;2585114;54;20930;31
2022/01/28 23:04:05;;;;;;;11.70;5.53;;;0.60;99.90;;;;;;2584362;54;20810;31
2022/01/28 23:06:40;;;;;;;15.00;6.65;;;0.60;99.90;;;;;;2585133;54;20026;31
2022/01/28 23:11:43;;;;;;;21.75;10.80;;;0.50;99.90;;;;;;2603100;46;20097;31
2022/01/28 23:14:21;;;;;;;20.40;9.70;;;0.60;99.90;;;;;;2603846;46;22465;31
2022/01/28 23:17:14;;;;;;;20.80;10.27;;;0.60;99.90;;;;;;2603653;46;20057;31
2022/01/28 23:20:09;;;;;;;27.25;11.90;;;0.50;99.90;;;;;;2584975;54;20057;31
2022/01/28 23:23:14;;;;;;;19.05;9.65;;;0.50;99.90;;;;;;2603075;47;20076;31
2022/01/28 23:25:50;;;;;;;17.67;8.40;;;0.50;99.90;;;;;;2585110;54;20007;31
2022/01/28 23:28:28;;;;;;;21.13;9.45;;;0.50;99.90;;;;;;2584143;54;20833;31
2022/01/28 23:31:30;;;;;;;20.60;9.27;;;0.50;99.90;;;;;;2602698;47;21268;31